sensor_id;sensor_type;location;lat;lon;timestamp;temperature;humidity
12761;DHT22;6444;49.742;6.114;2023-09-19T00:02:21;16.50;99.90
12761;DHT22;6444;49.742;6.114;2023-09-19T00:04:48;16.30;99.90
12761;DHT22;6444;49.742;6.114;2023-09-19T00:07:15;16.40;99.90
12761;DHT22;6444;49.742;6.114;2023-09-19T00:09:41;16.30;99.90
12761;DHT22;6444;49.742;6.114;2023-09-19T00:12:08;16.20;99.90
12761;DHT22;6444;49.742;6.114;2023-09-19T00:14:34;16.20;99.90
12761;DHT22;6444;49.742;6.114;2023-09-19T00:17:01;16.20;99.90
12761;DHT22;6444;49.742;6.114;2023-09-19T00:19:29;16.10;99.90
12761;DHT22;6444;49.742;6.114;2023-09-19T00:21:54;15.90;99.90
12761;DHT22;6444;49.742;6.114;2023-09-19T00:24:21;16.00;99.90
12761;DHT22;6444;49.742;6.114;2023-09-19T00:26:48;16.00;99.90
12761;DHT22;6444;49.742;6.114;2023-09-19T00:29:14;16.00;99.90
12761;DHT22;6444;49.742;6.114;2023-09-19T00:31:42;16.20;99.90
12761;DHT22;6444;49.742;6.114;2023-09-19T00:34:07;16.40;99.90
12761;DHT22;6444;49.742;6.114;2023-09-19T00:36:34;16.30;99.90
12761;DHT22;6444;49.742;6.114;2023-09-19T00:39:01;16.40;99.90
12761;DHT22;6444;49.742;6.114;2023-09-19T00:41:27;16.30;99.90
12761;DHT22;6444;49.742;6.114;2023-09-19T00:43:54;16.20;99.90
12761;DHT22;6444;49.742;6.114;2023-09-19T00:46:21;16.20;99.90
12761;DHT22;6444;49.742;6.114;2023-09-19T00:48:47;16.30;99.90
12761;DHT22;6444;49.742;6.114;2023-09-19T00:51:14;16.30;99.90
12761;DHT22;6444;49.742;6.114;2023-09-19T00:53:40;16.20;99.90
12761;DHT22;6444;49.742;6.114;2023-09-19T00:56:07;16.50;99.90
12761;DHT22;6444;49.742;6.114;2023-09-19T00:58:34;16.40;99.90
12761;DHT22;6444;49.742;6.114;2023-09-19T01:01:01;16.80;99.90
12761;DHT22;6444;49.742;6.114;2023-09-19T01:03:27;17.00;99.90
12761;DHT22;6444;49.742;6.114;2023-09-19T01:05:54;16.60;99.90
12761;DHT22;6444;49.742;6.114;2023-09-19T01:08:20;16.40;99.90
12761;DHT22;6444;49.742;6.114;2023-09-19T01:10:55;16.20;99.90
12761;DHT22;6444;49.742;6.114;2023-09-19T01:13:42;16.00;99.90
12761;DHT22;6444;49.742;6.114;2023-09-19T01:17:05;15.90;99.90
12761;DHT22;6444;49.742;6.114;2023-09-19T01:21:35;16.30;99.90
12761;DHT22;6444;49.742;6.114;2023-09-19T01:29:39;15.70;99.90
12761;DHT22;6444;49.742;6.114;2023-09-19T01:32:05;15.80;99.90
12761;DHT22;6444;49.742;6.114;2023-09-19T01:37:17;15.90;99.90
12761;DHT22;6444;49.742;6.114;2023-09-19T01:39:43;15.80;99.90
12761;DHT22;6444;49.742;6.114;2023-09-19T01:42:12;16.10;99.90
12761;DHT22;6444;49.742;6.114;2023-09-19T01:47:28;16.20;99.90
12761;DHT22;6444;49.742;6.114;2023-09-19T01:49:59;16.20;99.90
12761;DHT22;6444;49.742;6.114;2023-09-19T01:52:22;16.00;99.90
12761;DHT22;6444;49.742;6.114;2023-09-19T01:54:50;15.80;99.90
12761;DHT22;6444;49.742;6.114;2023-09-19T01:57:28;16.00;99.90
12761;DHT22;6444;49.742;6.114;2023-09-19T02:00:01;16.00;99.90
12761;DHT22;6444;49.742;6.114;2023-09-19T02:02:26;16.00;99.90
12761;DHT22;6444;49.742;6.114;2023-09-19T02:04:53;16.10;99.90
12761;DHT22;6444;49.742;6.114;2023-09-19T02:07:20;16.10;99.90
12761;DHT22;6444;49.742;6.114;2023-09-19T02:09:47;16.00;99.90
12761;DHT22;6444;49.742;6.114;2023-09-19T02:12:13;16.10;99.90
12761;DHT22;6444;49.742;6.114;2023-09-19T02:14:40;16.20;99.90
12761;DHT22;6444;49.742;6.114;2023-09-19T02:17:07;16.40;99.90
12761;DHT22;6444;49.742;6.114;2023-09-19T02:19:34;15.90;99.90
12761;DHT22;6444;49.742;6.114;2023-09-19T02:22:01;15.80;99.90
12761;DHT22;6444;49.742;6.114;2023-09-19T02:24:30;15.80;99.90
12761;DHT22;6444;49.742;6.114;2023-09-19T02:26:57;15.80;99.90
12761;DHT22;6444;49.742;6.114;2023-09-19T02:29:23;15.80;99.90
12761;DHT22;6444;49.742;6.114;2023-09-19T02:31:50;15.80;99.90
12761;DHT22;6444;49.742;6.114;2023-09-19T02:34:16;15.60;99.90
12761;DHT22;6444;49.742;6.114;2023-09-19T02:36:43;15.40;99.90
12761;DHT22;6444;49.742;6.114;2023-09-19T02:39:10;15.50;99.90
12761;DHT22;6444;49.742;6.114;2023-09-19T02:41:36;15.60;99.90
12761;DHT22;6444;49.742;6.114;2023-09-19T02:44:03;15.60;99.90
12761;DHT22;6444;49.742;6.114;2023-09-19T02:46:30;15.80;99.90
12761;DHT22;6444;49.742;6.114;2023-09-19T02:48:56;16.10;99.90
12761;DHT22;6444;49.742;6.114;2023-09-19T02:51:23;16.20;99.90
12761;DHT22;6444;49.742;6.114;2023-09-19T02:53:50;16.20;99.90
12761;DHT22;6444;49.742;6.114;2023-09-19T02:56:16;16.10;99.90
12761;DHT22;6444;49.742;6.114;2023-09-19T02:58:43;16.10;99.90
12761;DHT22;6444;49.742;6.114;2023-09-19T03:01:10;15.90;99.90
12761;DHT22;6444;49.742;6.114;2023-09-19T03:03:36;15.80;99.90
12761;DHT22;6444;49.742;6.114;2023-09-19T03:06:03;15.90;99.90
12761;DHT22;6444;49.742;6.114;2023-09-19T03:08:29;16.00;99.90
12761;DHT22;6444;49.742;6.114;2023-09-19T03:10:56;15.80;99.90
12761;DHT22;6444;49.742;6.114;2023-09-19T03:13:22;15.80;99.90
12761;DHT22;6444;49.742;6.114;2023-09-19T03:15:49;15.70;99.90
12761;DHT22;6444;49.742;6.114;2023-09-19T03:18:16;15.70;99.90
12761;DHT22;6444;49.742;6.114;2023-09-19T03:20:42;15.80;99.90
12761;DHT22;6444;49.742;6.114;2023-09-19T03:23:09;15.60;99.90
12761;DHT22;6444;49.742;6.114;2023-09-19T03:25:36;15.60;99.90
12761;DHT22;6444;49.742;6.114;2023-09-19T03:28:03;15.30;99.90
12761;DHT22;6444;49.742;6.114;2023-09-19T03:30:30;15.20;99.90
12761;DHT22;6444;49.742;6.114;2023-09-19T03:32:56;15.40;99.90
12761;DHT22;6444;49.742;6.114;2023-09-19T03:35:23;15.50;99.90
12761;DHT22;6444;49.742;6.114;2023-09-19T03:37:50;15.30;99.90
12761;DHT22;6444;49.742;6.114;2023-09-19T03:40:17;15.20;99.90
12761;DHT22;6444;49.742;6.114;2023-09-19T03:42:44;15.40;99.90
12761;DHT22;6444;49.742;6.114;2023-09-19T03:45:10;15.40;99.90
12761;DHT22;6444;49.742;6.114;2023-09-19T03:47:39;15.40;99.90
12761;DHT22;6444;49.742;6.114;2023-09-19T03:50:06;15.30;99.90
12761;DHT22;6444;49.742;6.114;2023-09-19T03:52:32;15.10;99.90
12761;DHT22;6444;49.742;6.114;2023-09-19T03:54:59;15.10;99.90
12761;DHT22;6444;49.742;6.114;2023-09-19T03:57:26;15.10;99.90
12761;DHT22;6444;49.742;6.114;2023-09-19T03:59:53;15.00;99.90
12761;DHT22;6444;49.742;6.114;2023-09-19T04:02:20;15.00;99.90
12761;DHT22;6444;49.742;6.114;2023-09-19T04:04:50;15.30;99.90
12761;DHT22;6444;49.742;6.114;2023-09-19T04:07:16;15.90;99.90
12761;DHT22;6444;49.742;6.114;2023-09-19T04:09:43;16.00;99.90
12761;DHT22;6444;49.742;6.114;2023-09-19T04:12:09;16.50;99.90
12761;DHT22;6444;49.742;6.114;2023-09-19T04:14:36;16.60;99.90
12761;DHT22;6444;49.742;6.114;2023-09-19T04:17:03;16.90;99.90
12761;DHT22;6444;49.742;6.114;2023-09-19T04:19:29;16.70;99.90
12761;DHT22;6444;49.742;6.114;2023-09-19T04:21:56;15.90;99.90
12761;DHT22;6444;49.742;6.114;2023-09-19T04:24:22;15.70;99.90
12761;DHT22;6444;49.742;6.114;2023-09-19T04:26:52;15.50;99.90
12761;DHT22;6444;49.742;6.114;2023-09-19T04:29:16;15.80;99.90
12761;DHT22;6444;49.742;6.114;2023-09-19T04:31:42;15.60;99.90
12761;DHT22;6444;49.742;6.114;2023-09-19T04:34:09;15.40;99.90
12761;DHT22;6444;49.742;6.114;2023-09-19T04:36:36;15.50;99.90
12761;DHT22;6444;49.742;6.114;2023-09-19T04:39:03;15.30;99.90
12761;DHT22;6444;49.742;6.114;2023-09-19T04:41:29;15.30;99.90
12761;DHT22;6444;49.742;6.114;2023-09-19T04:43:55;15.10;99.90
12761;DHT22;6444;49.742;6.114;2023-09-19T04:46:23;15.30;99.90
12761;DHT22;6444;49.742;6.114;2023-09-19T04:48:50;15.90;99.90
12761;DHT22;6444;49.742;6.114;2023-09-19T04:51:17;15.60;99.90
12761;DHT22;6444;49.742;6.114;2023-09-19T04:53:43;15.40;99.90
12761;DHT22;6444;49.742;6.114;2023-09-19T04:56:10;15.10;99.90
12761;DHT22;6444;49.742;6.114;2023-09-19T04:58:36;15.10;99.90
12761;DHT22;6444;49.742;6.114;2023-09-19T05:01:03;15.00;99.90
12761;DHT22;6444;49.742;6.114;2023-09-19T05:03:30;15.10;99.90
12761;DHT22;6444;49.742;6.114;2023-09-19T05:05:57;15.00;99.90
12761;DHT22;6444;49.742;6.114;2023-09-19T05:08:24;14.80;99.90
12761;DHT22;6444;49.742;6.114;2023-09-19T05:10:50;14.70;99.90
12761;DHT22;6444;49.742;6.114;2023-09-19T05:13:17;14.50;99.90
12761;DHT22;6444;49.742;6.114;2023-09-19T05:15:44;14.40;99.90
12761;DHT22;6444;49.742;6.114;2023-09-19T05:18:10;14.40;99.90
12761;DHT22;6444;49.742;6.114;2023-09-19T05:20:37;14.40;99.90
12761;DHT22;6444;49.742;6.114;2023-09-19T05:23:04;14.50;99.90
12761;DHT22;6444;49.742;6.114;2023-09-19T05:25:33;14.50;99.90
12761;DHT22;6444;49.742;6.114;2023-09-19T05:28:00;14.90;99.90
12761;DHT22;6444;49.742;6.114;2023-09-19T05:30:27;14.80;99.90
12761;DHT22;6444;49.742;6.114;2023-09-19T05:32:54;14.60;99.90
12761;DHT22;6444;49.742;6.114;2023-09-19T05:35:23;14.50;99.90
12761;DHT22;6444;49.742;6.114;2023-09-19T05:37:47;14.30;99.90
12761;DHT22;6444;49.742;6.114;2023-09-19T05:40:14;14.10;99.90
12761;DHT22;6444;49.742;6.114;2023-09-19T05:42:41;14.00;99.90
12761;DHT22;6444;49.742;6.114;2023-09-19T05:45:08;14.00;99.90
12761;DHT22;6444;49.742;6.114;2023-09-19T05:47:34;14.30;99.90
12761;DHT22;6444;49.742;6.114;2023-09-19T05:50:01;14.50;99.90
12761;DHT22;6444;49.742;6.114;2023-09-19T05:52:28;14.40;99.90
12761;DHT22;6444;49.742;6.114;2023-09-19T05:54:54;14.50;99.90
12761;DHT22;6444;49.742;6.114;2023-09-19T05:57:21;14.60;99.90
12761;DHT22;6444;49.742;6.114;2023-09-19T05:59:47;14.50;99.90
12761;DHT22;6444;49.742;6.114;2023-09-19T06:02:14;14.70;99.90
12761;DHT22;6444;49.742;6.114;2023-09-19T06:04:41;14.50;99.90
12761;DHT22;6444;49.742;6.114;2023-09-19T06:07:07;14.50;99.90
12761;DHT22;6444;49.742;6.114;2023-09-19T06:09:34;14.70;99.90
12761;DHT22;6444;49.742;6.114;2023-09-19T06:12:01;14.90;99.90
12761;DHT22;6444;49.742;6.114;2023-09-19T06:14:28;14.80;99.90
12761;DHT22;6444;49.742;6.114;2023-09-19T06:16:55;14.90;99.90
12761;DHT22;6444;49.742;6.114;2023-09-19T06:19:21;14.90;99.90
12761;DHT22;6444;49.742;6.114;2023-09-19T06:21:48;14.70;99.90
12761;DHT22;6444;49.742;6.114;2023-09-19T06:24:15;14.90;99.90
12761;DHT22;6444;49.742;6.114;2023-09-19T06:26:42;14.90;99.90
12761;DHT22;6444;49.742;6.114;2023-09-19T06:29:09;15.20;99.90
12761;DHT22;6444;49.742;6.114;2023-09-19T06:31:35;15.50;99.90
12761;DHT22;6444;49.742;6.114;2023-09-19T06:34:03;16.60;99.90
12761;DHT22;6444;49.742;6.114;2023-09-19T06:36:29;16.50;99.90
12761;DHT22;6444;49.742;6.114;2023-09-19T06:38:56;16.40;99.90
12761;DHT22;6444;49.742;6.114;2023-09-19T06:41:22;16.30;99.90
12761;DHT22;6444;49.742;6.114;2023-09-19T06:43:49;15.90;99.90
12761;DHT22;6444;49.742;6.114;2023-09-19T06:46:16;15.60;99.90
12761;DHT22;6444;49.742;6.114;2023-09-19T06:48:42;15.50;99.90
12761;DHT22;6444;49.742;6.114;2023-09-19T06:51:09;15.30;99.90
12761;DHT22;6444;49.742;6.114;2023-09-19T06:53:36;15.70;99.90
12761;DHT22;6444;49.742;6.114;2023-09-19T06:56:02;15.80;99.90
12761;DHT22;6444;49.742;6.114;2023-09-19T06:58:29;15.50;99.90
12761;DHT22;6444;49.742;6.114;2023-09-19T07:00:55;15.50;99.90
12761;DHT22;6444;49.742;6.114;2023-09-19T07:03:22;15.70;99.90
12761;DHT22;6444;49.742;6.114;2023-09-19T07:05:49;15.90;99.90
12761;DHT22;6444;49.742;6.114;2023-09-19T07:08:15;16.10;99.90
12761;DHT22;6444;49.742;6.114;2023-09-19T07:10:43;16.00;99.90
12761;DHT22;6444;49.742;6.114;2023-09-19T07:13:15;16.00;99.90
12761;DHT22;6444;49.742;6.114;2023-09-19T07:15:45;16.20;99.90
12761;DHT22;6444;49.742;6.114;2023-09-19T07:18:14;16.20;99.90
12761;DHT22;6444;49.742;6.114;2023-09-19T07:20:41;16.50;99.90
12761;DHT22;6444;49.742;6.114;2023-09-19T07:23:07;16.50;99.90
12761;DHT22;6444;49.742;6.114;2023-09-19T07:25:35;16.80;99.90
12761;DHT22;6444;49.742;6.114;2023-09-19T07:28:01;16.70;99.90
12761;DHT22;6444;49.742;6.114;2023-09-19T07:30:27;16.50;99.90
12761;DHT22;6444;49.742;6.114;2023-09-19T07:32:54;16.50;99.90
12761;DHT22;6444;49.742;6.114;2023-09-19T07:35:20;16.30;99.90
12761;DHT22;6444;49.742;6.114;2023-09-19T07:37:50;16.40;99.90
12761;DHT22;6444;49.742;6.114;2023-09-19T07:40:17;17.10;99.90
12761;DHT22;6444;49.742;6.114;2023-09-19T07:42:41;17.10;99.90
12761;DHT22;6444;49.742;6.114;2023-09-19T07:45:08;17.20;99.90
12761;DHT22;6444;49.742;6.114;2023-09-19T07:47:34;17.00;99.90
12761;DHT22;6444;49.742;6.114;2023-09-19T07:50:01;16.90;99.90
12761;DHT22;6444;49.742;6.114;2023-09-19T07:52:29;17.00;99.90
12761;DHT22;6444;49.742;6.114;2023-09-19T07:54:55;16.90;99.90
12761;DHT22;6444;49.742;6.114;2023-09-19T07:57:22;17.10;99.90
12761;DHT22;6444;49.742;6.114;2023-09-19T07:59:48;17.60;99.90
12761;DHT22;6444;49.742;6.114;2023-09-19T08:02:15;17.60;99.90
12761;DHT22;6444;49.742;6.114;2023-09-19T08:04:42;17.30;99.90
12761;DHT22;6444;49.742;6.114;2023-09-19T08:07:08;17.40;99.90
12761;DHT22;6444;49.742;6.114;2023-09-19T08:09:35;17.40;99.90
12761;DHT22;6444;49.742;6.114;2023-09-19T08:12:01;16.70;99.90
12761;DHT22;6444;49.742;6.114;2023-09-19T08:14:31;16.20;99.90
12761;DHT22;6444;49.742;6.114;2023-09-19T08:16:57;16.40;99.90
12761;DHT22;6444;49.742;6.114;2023-09-19T08:19:27;16.40;99.90
12761;DHT22;6444;49.742;6.114;2023-09-19T08:21:57;16.30;99.90
12761;DHT22;6444;49.742;6.114;2023-09-19T08:24:20;17.00;99.90
12761;DHT22;6444;49.742;6.114;2023-09-19T08:26:46;16.60;99.90
12761;DHT22;6444;49.742;6.114;2023-09-19T08:29:14;16.50;99.90
12761;DHT22;6444;49.742;6.114;2023-09-19T08:31:41;16.40;99.90
12761;DHT22;6444;49.742;6.114;2023-09-19T08:34:07;17.00;99.90
12761;DHT22;6444;49.742;6.114;2023-09-19T08:36:34;17.00;99.90
12761;DHT22;6444;49.742;6.114;2023-09-19T08:39:00;17.30;99.90
12761;DHT22;6444;49.742;6.114;2023-09-19T08:41:27;17.40;99.90
12761;DHT22;6444;49.742;6.114;2023-09-19T08:43:54;17.70;99.90
12761;DHT22;6444;49.742;6.114;2023-09-19T08:46:21;17.90;99.90
12761;DHT22;6444;49.742;6.114;2023-09-19T08:51:30;18.30;99.90
12761;DHT22;6444;49.742;6.114;2023-09-19T08:54:03;18.20;99.90
12761;DHT22;6444;49.742;6.114;2023-09-19T08:56:30;18.10;99.90
12761;DHT22;6444;49.742;6.114;2023-09-19T08:59:03;18.00;99.90
12761;DHT22;6444;49.742;6.114;2023-09-19T09:01:29;18.30;99.90
12761;DHT22;6444;49.742;6.114;2023-09-19T09:03:56;18.80;99.90
12761;DHT22;6444;49.742;6.114;2023-09-19T09:06:23;18.40;99.90
12761;DHT22;6444;49.742;6.114;2023-09-19T09:08:51;18.50;99.90
12761;DHT22;6444;49.742;6.114;2023-09-19T09:11:18;19.00;99.90
12761;DHT22;6444;49.742;6.114;2023-09-19T09:13:45;18.80;99.90
12761;DHT22;6444;49.742;6.114;2023-09-19T09:16:12;19.60;99.90
12761;DHT22;6444;49.742;6.114;2023-09-19T09:18:38;19.40;99.90
12761;DHT22;6444;49.742;6.114;2023-09-19T09:21:05;20.20;99.90
12761;DHT22;6444;49.742;6.114;2023-09-19T09:23:31;20.70;99.90
12761;DHT22;6444;49.742;6.114;2023-09-19T09:25:59;21.20;99.90
12761;DHT22;6444;49.742;6.114;2023-09-19T09:28:26;21.20;99.90
12761;DHT22;6444;49.742;6.114;2023-09-19T09:30:52;20.80;99.90
12761;DHT22;6444;49.742;6.114;2023-09-19T09:33:18;20.40;99.90
12761;DHT22;6444;49.742;6.114;2023-09-19T09:35:55;21.50;99.90
12761;DHT22;6444;49.742;6.114;2023-09-19T09:38:25;21.40;99.90
12761;DHT22;6444;49.742;6.114;2023-09-19T09:40:56;21.60;99.90
12761;DHT22;6444;49.742;6.114;2023-09-19T09:43:39;21.20;99.90
12761;DHT22;6444;49.742;6.114;2023-09-19T09:46:14;20.80;99.90
12761;DHT22;6444;49.742;6.114;2023-09-19T09:51:40;21.00;99.90
12761;DHT22;6444;49.742;6.114;2023-09-19T09:54:13;20.60;99.90
12761;DHT22;6444;49.742;6.114;2023-09-19T09:56:52;20.50;99.90
12761;DHT22;6444;49.742;6.114;2023-09-19T09:59:19;21.20;99.90
12761;DHT22;6444;49.742;6.114;2023-09-19T10:01:48;21.10;99.90
12761;DHT22;6444;49.742;6.114;2023-09-19T10:04:48;21.20;99.90
12761;DHT22;6444;49.742;6.114;2023-09-19T10:06:48;22.40;99.90
12761;DHT22;6444;49.742;6.114;2023-09-19T10:09:15;22.30;99.90
12761;DHT22;6444;49.742;6.114;2023-09-19T10:11:42;22.30;99.90
12761;DHT22;6444;49.742;6.114;2023-09-19T10:14:08;21.90;99.90
12761;DHT22;6444;49.742;6.114;2023-09-19T10:16:41;21.00;99.90
12761;DHT22;6444;49.742;6.114;2023-09-19T10:19:08;20.00;99.90
12761;DHT22;6444;49.742;6.114;2023-09-19T10:21:37;20.00;99.90
12761;DHT22;6444;49.742;6.114;2023-09-19T10:24:04;20.20;99.90
12761;DHT22;6444;49.742;6.114;2023-09-19T10:26:30;20.10;99.90
12761;DHT22;6444;49.742;6.114;2023-09-19T10:28:57;20.10;99.90
12761;DHT22;6444;49.742;6.114;2023-09-19T10:31:24;20.00;99.90
12761;DHT22;6444;49.742;6.114;2023-09-19T10:33:50;20.10;99.90
12761;DHT22;6444;49.742;6.114;2023-09-19T10:36:17;20.20;99.90
12761;DHT22;6444;49.742;6.114;2023-09-19T10:38:43;20.50;99.90
12761;DHT22;6444;49.742;6.114;2023-09-19T10:41:10;20.50;99.90
12761;DHT22;6444;49.742;6.114;2023-09-19T10:43:37;19.60;99.90
12761;DHT22;6444;49.742;6.114;2023-09-19T10:46:07;19.60;99.90
12761;DHT22;6444;49.742;6.114;2023-09-19T10:48:30;20.10;99.90
12761;DHT22;6444;49.742;6.114;2023-09-19T10:51:10;21.30;99.90
12761;DHT22;6444;49.742;6.114;2023-09-19T10:53:55;21.00;99.90
12761;DHT22;6444;49.742;6.114;2023-09-19T10:56:26;20.70;99.90
12761;DHT22;6444;49.742;6.114;2023-09-19T10:58:51;20.70;99.90
12761;DHT22;6444;49.742;6.114;2023-09-19T11:01:18;20.50;99.90
12761;DHT22;6444;49.742;6.114;2023-09-19T11:03:45;20.50;99.90
12761;DHT22;6444;49.742;6.114;2023-09-19T11:06:17;20.70;99.90
12761;DHT22;6444;49.742;6.114;2023-09-19T11:08:56;21.50;99.90
12761;DHT22;6444;49.742;6.114;2023-09-19T11:30:36;22.20;99.90
12761;DHT22;6444;49.742;6.114;2023-09-19T11:33:17;22.10;99.90
12761;DHT22;6444;49.742;6.114;2023-09-19T11:46:27;20.80;99.90
12761;DHT22;6444;49.742;6.114;2023-09-19T11:48:54;21.40;99.90
12761;DHT22;6444;49.742;6.114;2023-09-19T11:51:22;22.20;99.90
12761;DHT22;6444;49.742;6.114;2023-09-19T11:53:50;21.90;99.90
12761;DHT22;6444;49.742;6.114;2023-09-19T11:56:20;21.50;99.90
12761;DHT22;6444;49.742;6.114;2023-09-19T11:58:44;20.90;99.90
12761;DHT22;6444;49.742;6.114;2023-09-19T12:01:13;20.20;99.90
12761;DHT22;6444;49.742;6.114;2023-09-19T12:03:36;19.90;99.90
12761;DHT22;6444;49.742;6.114;2023-09-19T12:06:10;20.50;99.90
12761;DHT22;6444;49.742;6.114;2023-09-19T12:08:30;20.50;99.90
12761;DHT22;6444;49.742;6.114;2023-09-19T12:10:57;21.40;99.90
12761;DHT22;6444;49.742;6.114;2023-09-19T12:13:25;21.20;99.90
12761;DHT22;6444;49.742;6.114;2023-09-19T12:15:51;21.20;99.90
12761;DHT22;6444;49.742;6.114;2023-09-19T12:18:30;21.00;99.90
12761;DHT22;6444;49.742;6.114;2023-09-19T12:20:53;20.40;99.90
12761;DHT22;6444;49.742;6.114;2023-09-19T12:23:20;20.00;99.90
12761;DHT22;6444;49.742;6.114;2023-09-19T12:25:47;19.90;99.90
12761;DHT22;6444;49.742;6.114;2023-09-19T12:28:14;19.80;99.90
12761;DHT22;6444;49.742;6.114;2023-09-19T12:30:40;19.80;99.90
12761;DHT22;6444;49.742;6.114;2023-09-19T12:33:19;19.90;99.90
12761;DHT22;6444;49.742;6.114;2023-09-19T12:35:46;19.80;99.90
12761;DHT22;6444;49.742;6.114;2023-09-19T12:38:28;20.00;99.90
12761;DHT22;6444;49.742;6.114;2023-09-19T12:40:57;20.40;99.90
12761;DHT22;6444;49.742;6.114;2023-09-19T12:43:24;21.30;99.90
12761;DHT22;6444;49.742;6.114;2023-09-19T12:45:50;21.20;99.90
12761;DHT22;6444;49.742;6.114;2023-09-19T12:48:23;21.40;99.90
12761;DHT22;6444;49.742;6.114;2023-09-19T12:51:05;21.40;99.90
12761;DHT22;6444;49.742;6.114;2023-09-19T12:53:38;21.80;99.90
12761;DHT22;6444;49.742;6.114;2023-09-19T12:56:06;21.90;99.90
12761;DHT22;6444;49.742;6.114;2023-09-19T12:58:33;21.70;99.90
12761;DHT22;6444;49.742;6.114;2023-09-19T13:03:29;22.30;99.90
12761;DHT22;6444;49.742;6.114;2023-09-19T13:05:56;21.80;99.90
12761;DHT22;6444;49.742;6.114;2023-09-19T13:08:32;21.40;99.90
12761;DHT22;6444;49.742;6.114;2023-09-19T13:11:09;20.60;99.90
12761;DHT22;6444;49.742;6.114;2023-09-19T13:13:37;20.50;99.90
12761;DHT22;6444;49.742;6.114;2023-09-19T13:16:03;20.50;99.90
12761;DHT22;6444;49.742;6.114;2023-09-19T13:18:30;20.60;99.90
12761;DHT22;6444;49.742;6.114;2023-09-19T13:21:08;20.80;99.90
12761;DHT22;6444;49.742;6.114;2023-09-19T13:23:35;20.90;99.90
12761;DHT22;6444;49.742;6.114;2023-09-19T13:26:01;20.80;99.90
12761;DHT22;6444;49.742;6.114;2023-09-19T13:28:28;20.80;99.90
12761;DHT22;6444;49.742;6.114;2023-09-19T13:30:55;21.30;99.90
12761;DHT22;6444;49.742;6.114;2023-09-19T13:33:22;22.50;99.90
12761;DHT22;6444;49.742;6.114;2023-09-19T13:35:49;22.40;99.90
12761;DHT22;6444;49.742;6.114;2023-09-19T13:38:15;21.80;99.90
12761;DHT22;6444;49.742;6.114;2023-09-19T13:40:42;21.60;99.90
12761;DHT22;6444;49.742;6.114;2023-09-19T13:43:09;21.40;99.90
12761;DHT22;6444;49.742;6.114;2023-09-19T13:45:35;21.00;99.90
12761;DHT22;6444;49.742;6.114;2023-09-19T13:48:03;21.10;99.90
12761;DHT22;6444;49.742;6.114;2023-09-19T13:50:29;21.00;99.90
12761;DHT22;6444;49.742;6.114;2023-09-19T13:52:56;21.30;99.90
12761;DHT22;6444;49.742;6.114;2023-09-19T13:55:23;21.50;99.90
12761;DHT22;6444;49.742;6.114;2023-09-19T13:57:49;21.60;99.90
12761;DHT22;6444;49.742;6.114;2023-09-19T14:00:16;21.60;99.90
12761;DHT22;6444;49.742;6.114;2023-09-19T14:02:43;22.00;99.90
12761;DHT22;6444;49.742;6.114;2023-09-19T14:05:09;22.20;99.90
12761;DHT22;6444;49.742;6.114;2023-09-19T14:07:36;21.60;99.90
12761;DHT22;6444;49.742;6.114;2023-09-19T14:10:02;21.70;99.90
12761;DHT22;6444;49.742;6.114;2023-09-19T14:12:29;21.60;99.90
12761;DHT22;6444;49.742;6.114;2023-09-19T14:14:56;21.70;99.90
12761;DHT22;6444;49.742;6.114;2023-09-19T14:17:22;21.90;99.90
12761;DHT22;6444;49.742;6.114;2023-09-19T14:19:49;21.80;99.90
12761;DHT22;6444;49.742;6.114;2023-09-19T14:22:16;21.50;99.90
12761;DHT22;6444;49.742;6.114;2023-09-19T14:24:43;20.90;99.90
12761;DHT22;6444;49.742;6.114;2023-09-19T14:27:10;20.80;99.90
12761;DHT22;6444;49.742;6.114;2023-09-19T14:29:36;20.90;99.90
12761;DHT22;6444;49.742;6.114;2023-09-19T14:32:03;20.80;99.90
12761;DHT22;6444;49.742;6.114;2023-09-19T14:34:30;20.60;99.90
12761;DHT22;6444;49.742;6.114;2023-09-19T14:36:56;20.30;99.90
12761;DHT22;6444;49.742;6.114;2023-09-19T14:39:23;20.30;99.90
12761;DHT22;6444;49.742;6.114;2023-09-19T14:41:50;20.50;99.90
12761;DHT22;6444;49.742;6.114;2023-09-19T14:44:16;20.60;99.90
12761;DHT22;6444;49.742;6.114;2023-09-19T14:46:44;20.80;99.90
12761;DHT22;6444;49.742;6.114;2023-09-19T14:49:10;20.80;99.90
12761;DHT22;6444;49.742;6.114;2023-09-19T14:51:40;21.30;99.90
12761;DHT22;6444;49.742;6.114;2023-09-19T14:54:06;21.30;99.90
12761;DHT22;6444;49.742;6.114;2023-09-19T14:56:33;21.00;99.90
12761;DHT22;6444;49.742;6.114;2023-09-19T14:59:00;20.90;99.90
12761;DHT22;6444;49.742;6.114;2023-09-19T15:01:28;20.80;99.90
12761;DHT22;6444;49.742;6.114;2023-09-19T15:03:53;20.70;99.90
12761;DHT22;6444;49.742;6.114;2023-09-19T15:06:19;20.80;99.90
12761;DHT22;6444;49.742;6.114;2023-09-19T15:08:46;20.90;99.90
12761;DHT22;6444;49.742;6.114;2023-09-19T15:11:19;21.30;99.90
12761;DHT22;6444;49.742;6.114;2023-09-19T15:13:47;21.60;99.90
12761;DHT22;6444;49.742;6.114;2023-09-19T15:16:13;21.60;99.90
12761;DHT22;6444;49.742;6.114;2023-09-19T15:18:40;21.70;99.90
12761;DHT22;6444;49.742;6.114;2023-09-19T15:21:06;21.30;99.90
12761;DHT22;6444;49.742;6.114;2023-09-19T15:23:33;20.80;99.90
12761;DHT22;6444;49.742;6.114;2023-09-19T15:26:00;20.70;99.90
12761;DHT22;6444;49.742;6.114;2023-09-19T15:28:27;20.70;99.90
12761;DHT22;6444;49.742;6.114;2023-09-19T15:31:03;21.00;99.90
12761;DHT22;6444;49.742;6.114;2023-09-19T15:33:30;21.10;99.90
12761;DHT22;6444;49.742;6.114;2023-09-19T15:36:05;21.20;99.90
12761;DHT22;6444;49.742;6.114;2023-09-19T15:38:32;21.00;99.90
12761;DHT22;6444;49.742;6.114;2023-09-19T15:40:58;20.70;99.90
12761;DHT22;6444;49.742;6.114;2023-09-19T15:43:25;21.00;99.90
12761;DHT22;6444;49.742;6.114;2023-09-19T15:45:52;21.20;99.90
12761;DHT22;6444;49.742;6.114;2023-09-19T15:48:19;21.20;99.90
12761;DHT22;6444;49.742;6.114;2023-09-19T15:50:45;21.50;99.90
12761;DHT22;6444;49.742;6.114;2023-09-19T15:53:12;21.70;99.90
12761;DHT22;6444;49.742;6.114;2023-09-19T15:55:39;21.90;99.90
12761;DHT22;6444;49.742;6.114;2023-09-19T15:58:06;22.00;99.90
12761;DHT22;6444;49.742;6.114;2023-09-19T16:00:35;21.80;99.90
12761;DHT22;6444;49.742;6.114;2023-09-19T16:03:01;21.60;99.90
12761;DHT22;6444;49.742;6.114;2023-09-19T16:05:28;21.40;99.90
12761;DHT22;6444;49.742;6.114;2023-09-19T16:07:54;21.20;99.90
12761;DHT22;6444;49.742;6.114;2023-09-19T16:10:21;21.10;99.90
12761;DHT22;6444;49.742;6.114;2023-09-19T16:12:48;20.90;99.90
12761;DHT22;6444;49.742;6.114;2023-09-19T16:15:14;20.90;99.90
12761;DHT22;6444;49.742;6.114;2023-09-19T16:17:41;20.90;99.90
12761;DHT22;6444;49.742;6.114;2023-09-19T16:20:08;20.70;99.90
12761;DHT22;6444;49.742;6.114;2023-09-19T16:22:34;21.00;99.90
12761;DHT22;6444;49.742;6.114;2023-09-19T16:25:01;21.10;99.90
12761;DHT22;6444;49.742;6.114;2023-09-19T16:27:27;21.00;99.90
12761;DHT22;6444;49.742;6.114;2023-09-19T16:29:54;21.30;99.90
12761;DHT22;6444;49.742;6.114;2023-09-19T16:32:21;21.40;99.90
12761;DHT22;6444;49.742;6.114;2023-09-19T16:34:47;21.60;99.90
12761;DHT22;6444;49.742;6.114;2023-09-19T16:37:14;21.30;99.90
12761;DHT22;6444;49.742;6.114;2023-09-19T16:39:41;21.10;99.90